Time;durP1;ratioP1;P1;durP2;ratioP2;P2;SDS_P1;SDS_P2;PMS_P1;PMS_P2;Temp;Humidity;BMP_temperature;BMP_pressure;BME280_temperature;BME280_humidity;BME280_pressure;Samples;Min_cycle;Max_cycle;Signal;HPM_P1;HPM_P2
2023/09/25 00:01:35;;;;;;;12.50;6.40;;;;;;;10.88;100.00;101878.30;215750;1291;142241;-86
2023/09/25 00:06:36;;;;;;;9.70;5.20;;;;;;;10.83;100.00;101874.22;215804;1290;139586;-86
2023/09/25 00:11:36;;;;;;;10.50;5.40;;;;;;;10.80;100.00;101874.64;215669;1290;141990;-85
2023/09/25 00:16:38;;;;;;;14.40;7.50;;;;;;;10.76;100.00;101876.54;216006;1288;139366;-85
2023/09/25 00:21:38;;;;;;;12.80;6.40;;;;;;;10.72;100.00;101869.53;215562;1290;142020;-86
2023/09/25 00:26:39;;;;;;;14.30;6.10;;;;;;;10.68;100.00;101873.38;215337;1288;139365;-85
2023/09/25 00:31:39;;;;;;;11.40;6.10;;;;;;;10.63;100.00;101868.80;214924;1287;141704;-85
2023/09/25 00:36:40;;;;;;;13.70;6.30;;;;;;;10.59;100.00;101867.09;215423;1290;139199;-85
2023/09/25 00:41:40;;;;;;;12.40;5.50;;;;;;;10.56;100.00;101870.21;214960;1288;141176;-86
2023/09/25 00:46:40;;;;;;;11.60;5.30;;;;;;;10.54;100.00;101874.80;215389;1288;139588;-85
2023/09/25 00:51:42;;;;;;;11.30;4.70;;;;;;;10.54;100.00;101871.50;215091;1287;142139;-85
2023/09/25 00:56:42;;;;;;;9.60;4.90;;;;;;;10.55;100.00;101872.14;215447;1290;140267;-86
2023/09/25 01:01:43;;;;;;;12.70;5.30;;;;;;;10.54;100.00;101869.06;214914;1288;142871;-84
2023/09/25 01:06:43;;;;;;;10.60;5.00;;;;;;;10.57;100.00;101861.39;215372;1288;139789;-84
2023/09/25 01:11:44;;;;;;;9.80;5.30;;;;;;;10.66;100.00;101862.61;214894;1289;142365;-84
2023/09/25 01:16:44;;;;;;;14.80;5.50;;;;;;;10.81;100.00;101852.82;215462;1288;139365;-84
2023/09/25 01:21:46;;;;;;;13.30;5.30;;;;;;;10.93;100.00;101856.81;215236;1288;143882;-84
2023/09/25 01:26:47;;;;;;;11.80;5.10;;;;;;;11.01;100.00;101859.76;215561;1287;139699;-85
2023/09/25 01:31:47;;;;;;;17.10;5.50;;;;;;;11.06;100.00;101856.23;214922;1287;141402;-85
2023/09/25 01:36:47;;;;;;;11.80;4.90;;;;;;;11.10;100.00;101856.51;215858;1290;139533;-85
2023/09/25 01:41:48;;;;;;;11.50;4.80;;;;;;;11.16;100.00;101848.61;214789;1290;141147;-84
2023/09/25 01:46:48;;;;;;;9.90;5.10;;;;;;;11.21;100.00;101844.80;215432;1288;139108;-84
2023/09/25 01:51:49;;;;;;;9.60;5.20;;;;;;;11.25;100.00;101844.95;214637;1290;141720;-85
2023/09/25 01:56:49;;;;;;;12.10;5.20;;;;;;;11.31;100.00;101841.83;215359;1286;138573;-85
2023/09/25 02:01:50;;;;;;;11.80;4.60;;;;;;;11.37;100.00;101833.56;214929;1285;140044;-85
2023/09/25 02:06:50;;;;;;;14.00;4.80;;;;;;;11.42;100.00;101831.45;215239;1286;139004;-85
2023/09/25 02:11:50;;;;;;;12.90;5.80;;;;;;;11.49;100.00;101833.61;214638;1288;141063;-84
2023/09/25 02:16:51;;;;;;;10.40;5.30;;;;;;;11.54;100.00;101831.48;215401;1290;139125;-85
2023/09/25 02:21:51;;;;;;;11.60;5.90;;;;;;;11.58;100.00;101826.42;214796;1292;141501;-85
2023/09/25 02:26:52;;;;;;;12.50;5.80;;;;;;;11.67;100.00;101821.91;215364;1289;138652;-86
2023/09/25 02:31:53;;;;;;;16.50;7.40;;;;;;;11.72;100.00;101821.09;214657;1290;141555;-84
2023/09/25 02:36:53;;;;;;;12.80;7.50;;;;;;;11.70;100.00;101813.87;215200;1286;139101;-84
2023/09/25 02:41:54;;;;;;;13.20;7.40;;;;;;;11.70;100.00;101809.27;214665;1297;141433;-84
2023/09/25 02:46:54;;;;;;;15.60;8.50;;;;;;;11.69;100.00;101812.66;215057;1290;139044;-85
2023/09/25 02:51:54;;;;;;;22.70;9.30;;;;;;;11.69;100.00;101815.00;215221;1290;142741;-82
2023/09/25 02:56:55;;;;;;;16.90;8.50;;;;;;;11.69;100.00;101820.69;215618;1292;98893;-85
2023/09/25 03:01:55;;;;;;;16.90;9.20;;;;;;;11.68;100.00;101817.68;214760;1288;140266;-86
2023/09/25 03:06:56;;;;;;;14.40;8.90;;;;;;;11.65;100.00;101814.90;215365;1289;139501;-85
2023/09/25 03:11:57;;;;;;;16.80;8.90;;;;;;;11.60;100.00;101817.90;214828;1290;141537;-86
2023/09/25 03:16:57;;;;;;;16.60;9.20;;;;;;;11.56;100.00;101817.43;215179;1287;139840;-86
2023/09/25 03:21:57;;;;;;;15.00;9.20;;;;;;;11.49;100.00;101821.33;214621;1291;141298;-86
2023/09/25 03:26:58;;;;;;;17.50;9.50;;;;;;;11.42;100.00;101819.15;215206;1289;98029;-86
2023/09/25 03:31:58;;;;;;;18.30;8.40;;;;;;;11.35;100.00;101814.44;214729;1291;142154;-86
2023/09/25 03:36:59;;;;;;;14.20;8.90;;;;;;;11.28;100.00;101810.38;215244;1290;139093;-85
2023/09/25 03:41:59;;;;;;;15.10;8.50;;;;;;;11.22;100.00;101802.23;214528;1286;141810;-85
2023/09/25 03:47:00;;;;;;;15.50;9.40;;;;;;;11.17;100.00;101808.55;215512;1287;139563;-86
2023/09/25 03:52:00;;;;;;;14.60;8.40;;;;;;;11.12;100.00;101808.80;215787;1287;140656;-85
2023/09/25 03:57:01;;;;;;;18.00;9.40;;;;;;;11.08;100.00;101812.45;216174;1286;97947;-86
2023/09/25 04:02:01;;;;;;;14.30;9.00;;;;;;;11.05;100.00;101807.62;215684;1287;141061;-85
2023/09/25 04:07:01;;;;;;;19.20;9.50;;;;;;;11.01;100.00;101804.27;216327;1287;139226;-86
2023/09/25 04:12:03;;;;;;;15.60;9.40;;;;;;;10.97;100.00;101803.25;216294;1286;139694;-85
2023/09/25 04:17:03;;;;;;;16.40;10.10;;;;;;;10.93;100.00;101803.38;215957;1287;139099;-86
2023/09/25 04:22:06;;;;;;;16.40;9.40;;;;;;;10.89;100.00;101800.73;215080;1287;142120;-85
2023/09/25 04:27:09;;;;;;;16.80;10.20;;;;;;;10.88;100.00;101799.35;215569;1286;97947;-86
2023/09/25 04:32:10;;;;;;;16.00;9.40;;;;;;;10.87;100.00;101802.01;215037;1288;141785;-86
2023/09/25 04:37:10;;;;;;;15.70;10.00;;;;;;;10.85;100.00;101796.13;215546;1286;139184;-87
2023/09/25 04:42:11;;;;;;;15.80;10.10;;;;;;;10.84;100.00;101798.77;215206;1288;141494;-86
2023/09/25 04:47:12;;;;;;;16.60;10.10;;;;;;;10.83;100.00;101800.38;215807;1290;139325;-84
2023/09/25 04:52:12;;;;;;;18.60;11.50;;;;;;;10.82;100.00;101800.20;215818;1288;141526;-85
2023/09/25 04:57:14;;;;;;;20.80;10.50;;;;;;;10.80;100.00;101800.14;216362;1288;97900;-84
2023/09/25 05:02:14;;;;;;;18.50;10.80;;;;;;;10.81;100.00;101802.45;215445;1286;140831;-84
2023/09/25 05:07:15;;;;;;;17.70;10.90;;;;;;;10.81;100.00;101800.51;216025;1285;140177;-84
2023/09/25 05:12:15;;;;;;;17.60;10.00;;;;;;;10.82;100.00;101801.23;215351;1286;141798;-83
2023/09/25 05:17:16;;;;;;;20.00;10.90;;;;;;;10.84;100.00;101801.63;216199;1285;139759;-84
2023/09/25 05:22:17;;;;;;;17.20;9.80;;;;;;;10.88;100.00;101802.73;215436;1286;142944;-84
2023/09/25 05:27:17;;;;;;;15.70;9.80;;;;;;;10.92;100.00;101799.80;216671;1288;98417;-83
2023/09/25 05:32:17;;;;;;;16.90;9.20;;;;;;;10.95;100.00;101800.77;215852;1285;140734;-84
2023/09/25 05:37:18;;;;;;;17.80;10.60;;;;;;;11.02;100.00;101804.21;217156;1288;140355;-84
2023/09/25 05:42:19;;;;;;;17.90;11.50;;;;;;;11.10;100.00;101807.37;216376;1285;142758;-83
2023/09/25 05:47:25;;;;;;;18.70;10.10;;;;;;;11.17;100.00;101809.10;216805;1285;139361;-84
2023/09/25 05:52:25;;;;;;;19.40;12.20;;;;;;;11.25;100.00;101809.49;214991;1288;140426;-84
2023/09/25 05:57:26;;;;;;;17.30;10.90;;;;;;;11.36;100.00;101809.91;215437;1290;97925;-84
2023/09/25 06:02:33;;;;;;;23.50;11.60;;;;;;;11.46;100.00;101809.00;215209;1285;141635;-84
2023/09/25 06:07:35;;;;;;;15.60;10.10;;;;;;;11.56;100.00;101814.30;215881;1286;139545;-84
2023/09/25 06:12:35;;;;;;;18.00;10.10;;;;;;;11.72;100.00;101815.56;215169;1286;143820;-83
2023/09/25 06:17:39;;;;;;;16.80;10.70;;;;;;;11.86;100.00;101815.41;215742;1288;139737;-84
2023/09/25 06:22:40;;;;;;;16.10;9.70;;;;;;;12.03;100.00;101828.11;215153;1285;141506;-81
2023/09/25 06:27:44;;;;;;;16.40;10.70;;;;;;;12.16;100.00;101830.66;216473;1284;98364;-83
2023/09/25 06:32:44;;;;;;;15.80;9.40;;;;;;;12.29;100.00;101835.30;215796;1285;143367;-85
2023/09/25 06:37:44;;;;;;;16.10;8.70;;;;;;;12.40;100.00;101834.23;216159;1286;138418;-85
2023/09/25 06:42:45;;;;;;;15.10;9.00;;;;;;;12.55;100.00;101835.80;216238;1285;141861;-85
2023/09/25 06:47:47;;;;;;;15.60;8.20;;;;;;;12.73;100.00;101844.56;216400;1288;139523;-84
2023/09/25 06:52:47;;;;;;;18.40;9.00;;;;;;;12.90;100.00;101842.23;215695;1286;141352;-84
2023/09/25 06:57:48;;;;;;;17.00;8.80;;;;;;;13.05;100.00;101845.22;216289;1285;97938;-84
2023/09/25 07:02:49;;;;;;;13.60;7.90;;;;;;;13.20;100.00;101844.52;216033;1286;140249;-83
2023/09/25 07:07:51;;;;;;;14.00;8.80;;;;;;;13.37;100.00;101849.17;215826;1285;139385;-83
2023/09/25 07:12:52;;;;;;;14.40;7.90;;;;;;;13.54;100.00;101851.30;215214;1287;141630;-83
2023/09/25 07:17:52;;;;;;;13.90;7.40;;;;;;;13.67;100.00;101849.54;215427;1286;139635;-83
2023/09/25 07:22:52;;;;;;;12.60;7.40;;;;;;;13.81;100.00;101851.09;215500;1287;140892;-83
2023/09/25 07:27:53;;;;;;;14.90;7.60;;;;;;;13.98;100.00;101847.56;215996;1287;97867;-83
2023/09/25 07:32:53;;;;;;;13.30;6.40;;;;;;;14.14;100.00;101845.84;215651;1286;141211;-83
2023/09/25 07:37:54;;;;;;;13.80;6.70;;;;;;;14.35;100.00;101843.63;215868;1288;138375;-84
2023/09/25 07:42:55;;;;;;;17.30;6.60;;;;;;;14.56;100.00;101846.45;215553;1288;140732;-84
2023/09/25 07:47:55;;;;;;;11.20;6.10;;;;;;;14.74;100.00;101844.56;216040;1286;139628;-84
2023/09/25 07:52:56;;;;;;;9.80;5.60;;;;;;;14.98;100.00;101845.73;215261;1286;141345;-84
2023/09/25 07:57:56;;;;;;;10.80;5.60;;;;;;;15.20;100.00;101842.67;215886;1285;139387;-82
2023/09/25 08:02:57;;;;;;;9.40;5.20;;;;;;;15.45;100.00;101843.54;215663;1286;141121;-84
2023/09/25 08:07:57;;;;;;;14.70;5.50;;;;;;;15.67;100.00;101835.35;216620;1285;139687;-85
2023/09/25 08:12:58;;;;;;;11.30;5.40;;;;;;;15.88;100.00;101828.15;215179;1286;142299;-84
2023/09/25 08:17:58;;;;;;;9.80;4.90;;;;;;;16.10;100.00;101824.83;216334;1290;139035;-84
2023/09/25 08:22:59;;;;;;;12.70;5.80;;;;;;;16.36;100.00;101826.63;215979;1285;142637;-84
2023/09/25 08:27:59;;;;;;;8.60;4.10;;;;;;;16.62;100.00;101823.88;216419;1284;139229;-86
2023/09/25 08:32:59;;;;;;;12.80;5.20;;;;;;;16.90;100.00;101827.36;215754;1288;141167;-85
2023/09/25 08:38:01;;;;;;;8.10;4.40;;;;;;;17.22;100.00;101823.84;216077;1285;139629;-85
2023/09/25 08:43:03;;;;;;;9.50;4.80;;;;;;;17.58;100.00;101826.62;215358;1287;141916;-86
2023/09/25 08:48:05;;;;;;;10.80;4.00;;;;;;;17.98;100.00;101823.27;215834;1286;139351;-85
2023/09/25 08:53:06;;;;;;;17.70;4.30;;;;;;;18.41;100.00;101822.19;215289;1284;141182;-87
2023/09/25 08:58:11;;;;;;;8.80;4.00;;;;;;;18.93;100.00;101827.16;215434;1285;139612;-85
2023/09/25 09:03:12;;;;;;;6.30;3.30;;;;;;;19.56;99.46;101826.80;215481;1285;141154;-85
2023/09/25 09:08:16;;;;;;;9.70;3.30;;;;;;;20.23;98.94;101820.35;216035;1284;138965;-86
2023/09/25 09:13:22;;;;;;;6.60;3.20;;;;;;;21.03;95.93;101823.58;215561;1284;140268;-85
2023/09/25 09:18:25;;;;;;;7.00;3.40;;;;;;;21.83;92.02;101817.34;216246;1285;139241;-86
2023/09/25 09:23:40;;;;;;;7.40;3.10;;;;;;;22.36;87.99;101812.67;215809;1283;139767;-84
2023/09/25 09:28:42;;;;;;;10.80;3.40;;;;;;;22.70;82.21;101808.30;216033;1285;139942;-84
2023/09/25 09:33:43;;;;;;;7.90;3.00;;;;;;;22.98;80.83;101808.46;215514;1286;140989;-86
2023/09/25 09:38:45;;;;;;;6.30;3.20;;;;;;;23.34;77.79;101801.88;215946;1286;138655;-84
2023/09/25 09:43:47;;;;;;;6.80;2.90;;;;;;;23.83;77.65;101798.38;215302;1286;142814;-86
2023/09/25 09:48:50;;;;;;;7.40;3.00;;;;;;;24.30;73.62;101791.77;215883;1285;139291;-85
2023/09/25 09:53:52;;;;;;;7.80;2.90;;;;;;;24.58;72.11;101788.84;215909;1285;140554;-85
2023/09/25 09:58:54;;;;;;;8.80;3.10;;;;;;;25.00;70.61;101779.06;216236;1285;138280;-85
2023/09/25 10:03:55;;;;;;;8.10;3.30;;;;;;;25.12;67.39;101773.21;215809;1285;140141;-85
2023/09/25 10:09:07;;;;;;;8.60;3.60;;;;;;;25.24;68.10;101767.22;216427;1284;97999;-84
2023/09/25 10:14:08;;;;;;;9.20;3.60;;;;;;;25.43;66.60;101766.61;216026;1286;138183;-86
2023/09/25 10:19:22;;;;;;;8.80;3.80;;;;;;;25.45;65.13;101769.30;215750;1285;140533;-84
2023/09/25 10:24:25;;;;;;;17.80;4.50;;;;;;;25.65;64.75;101761.45;215945;1285;138457;-86
2023/09/25 10:29:27;;;;;;;8.70;3.70;;;;;;;25.89;64.93;101758.96;215697;1286;141170;-85
2023/09/25 10:34:29;;;;;;;7.20;4.30;;;;;;;25.91;63.61;101759.63;216679;1284;139555;-86
2023/09/25 10:39:30;;;;;;;6.70;3.30;;;;;;;25.81;63.27;101756.86;215807;1284;140017;-86
2023/09/25 10:44:30;;;;;;;7.20;2.80;;;;;;;25.41;62.33;101750.09;215996;1286;138254;-85
2023/09/25 10:49:34;;;;;;;5.30;2.70;;;;;;;25.34;62.61;101749.66;215798;1285;139853;-85
2023/09/25 10:54:35;;;;;;;6.70;2.70;;;;;;;25.43;62.69;101748.96;216649;1285;138347;-84
2023/09/25 10:59:35;;;;;;;6.50;3.20;;;;;;;25.62;61.52;101740.83;216662;1288;139841;-85
2023/09/25 11:04:36;;;;;;;5.40;3.00;;;;;;;25.65;61.69;101736.89;216338;1287;160753;-86
2023/09/25 11:09:36;;;;;;;9.90;3.00;;;;;;;25.80;61.62;101720.77;215866;1287;139563;-86
2023/09/25 11:14:37;;;;;;;9.50;2.60;;;;;;;25.85;58.80;101722.66;217123;1286;138232;-85
2023/09/25 11:19:38;;;;;;;5.50;2.60;;;;;;;25.65;59.72;101722.77;216562;1286;140636;-86
2023/09/25 11:24:38;;;;;;;9.70;3.10;;;;;;;25.69;59.45;101714.29;217174;1285;138714;-85
2023/09/25 11:29:38;;;;;;;7.50;2.50;;;;;;;25.55;58.24;101709.30;216065;1285;139948;-85
2023/09/25 11:34:39;;;;;;;7.90;2.80;;;;;;;25.33;58.89;101703.13;215767;1285;138681;-85
2023/09/25 11:39:40;;;;;;;6.70;2.90;;;;;;;25.44;59.54;101700.05;215483;1285;139808;-84
2023/09/25 11:44:40;;;;;;;6.00;3.00;;;;;;;25.46;59.29;101702.75;216312;1285;139112;-83
2023/09/25 11:49:40;;;;;;;11.70;2.80;;;;;;;25.22;58.64;101704.34;215905;1285;140189;-84
2023/09/25 11:54:41;;;;;;;5.10;2.50;;;;;;;25.00;58.48;101701.70;215913;1285;138882;-84
2023/09/25 11:59:42;;;;;;;6.50;3.10;;;;;;;24.94;59.16;101700.36;215505;1285;140088;-84
2023/09/25 12:04:43;;;;;;;5.80;2.30;;;;;;;24.82;59.29;101697.89;215879;1287;138626;-85
2023/09/25 12:09:43;;;;;;;5.90;2.80;;;;;;;24.93;59.25;101691.94;215606;1286;139209;-86
2023/09/25 12:14:43;;;;;;;5.80;2.50;;;;;;;24.92;59.54;101685.20;216303;1284;140084;-85
2023/09/25 12:19:44;;;;;;;8.40;3.20;;;;;;;24.91;59.75;101683.36;215878;1285;140671;-84
2023/09/25 12:24:44;;;;;;;8.00;2.60;;;;;;;24.94;59.49;101671.63;215965;1285;138291;-84
2023/09/25 12:29:45;;;;;;;8.00;2.60;;;;;;;24.86;58.94;101670.80;217522;1285;140970;-82
2023/09/25 12:34:45;;;;;;;6.10;2.40;;;;;;;24.60;57.56;101672.48;218347;1284;138083;-83
2023/09/25 12:39:47;;;;;;;7.90;2.80;;;;;;;24.33;58.76;101667.95;218698;1285;141548;-84
2023/09/25 12:44:48;;;;;;;11.60;3.00;;;;;;;24.32;58.26;101664.35;219016;1284;138528;-81
2023/09/25 12:49:55;;;;;;;8.00;2.70;;;;;;;24.26;58.22;101672.73;218248;1285;141021;-84
2023/09/25 12:54:55;;;;;;;6.90;3.00;;;;;;;24.05;59.04;101672.36;218935;1285;138608;-86
2023/09/25 12:59:56;;;;;;;8.10;3.30;;;;;;;23.94;59.80;101668.21;218489;1287;139777;-85
2023/09/25 13:04:56;;;;;;;6.00;2.90;;;;;;;23.94;60.25;101665.25;218869;1285;139423;-84
2023/09/25 13:09:57;;;;;;;6.00;2.90;;;;;;;24.03;60.87;101663.98;218356;1284;140383;-83
2023/09/25 13:14:57;;;;;;;6.50;2.90;;;;;;;24.16;60.28;101656.58;218941;1286;96453;-84
2023/09/25 13:20:07;;;;;;;8.20;3.30;;;;;;;24.25;60.50;101651.85;218428;1285;139713;-82
2023/09/25 13:25:08;;;;;;;7.60;3.10;;;;;;;24.24;60.31;101646.33;218887;1285;138108;-83
2023/09/25 13:30:15;;;;;;;9.80;3.30;;;;;;;24.28;60.18;101649.04;218387;1285;141204;-84
2023/09/25 13:35:16;;;;;;;7.40;3.00;;;;;;;24.24;59.48;101645.85;218467;1285;139155;-83
2023/09/25 13:40:17;;;;;;;7.00;3.10;;;;;;;24.08;59.52;101651.48;218470;1285;141727;-84
2023/09/25 13:45:17;;;;;;;5.80;2.60;;;;;;;23.94;59.77;101652.29;217204;1285;97944;-84
2023/09/25 13:50:19;;;;;;;6.20;3.00;;;;;;;23.79;60.59;101650.14;215047;1285;139720;-84
2023/09/25 13:55:19;;;;;;;6.00;3.10;;;;;;;23.76;61.52;101645.73;216345;1284;138593;-84
2023/09/25 14:00:20;;;;;;;8.00;3.10;;;;;;;23.74;61.93;101638.40;215278;1286;140670;-83
2023/09/25 14:05:22;;;;;;;20.90;4.20;;;;;;;23.61;61.69;101634.19;215457;1286;138296;-84
2023/09/25 14:10:22;;;;;;;7.70;3.20;;;;;;;23.61;62.24;101629.72;214596;1286;139128;-84
2023/09/25 14:15:23;;;;;;;6.10;3.20;;;;;;;23.46;62.42;101630.67;218114;1285;97185;-85
2023/09/25 14:20:23;;;;;;;6.20;2.80;;;;;;;23.37;62.54;101625.11;218392;1285;139743;-84
2023/09/25 14:25:23;;;;;;;7.40;3.00;;;;;;;23.44;63.14;101618.27;215562;1287;137749;-83
2023/09/25 14:30:24;;;;;;;11.70;3.70;;;;;;;23.42;63.47;101617.52;214179;1286;140387;-83
2023/09/25 14:35:24;;;;;;;8.30;3.30;;;;;;;23.36;63.37;101621.20;214964;1288;138326;-83
2023/09/25 14:40:25;;;;;;;8.90;3.30;;;;;;;23.11;63.67;101620.04;214443;1286;140150;-85
2023/09/25 14:45:26;;;;;;;13.10;3.40;;;;;;;23.06;64.49;101626.88;215694;1284;97931;-84
2023/09/25 14:50:26;;;;;;;8.80;3.50;;;;;;;22.96;64.54;101619.96;214824;1288;140994;-83
2023/09/25 14:55:27;;;;;;;7.40;3.60;;;;;;;22.77;64.87;101620.70;215159;1287;138505;-83
2023/09/25 15:00:27;;;;;;;9.20;3.30;;;;;;;22.73;65.52;101614.96;213977;1290;142587;-83
2023/09/25 15:05:29;;;;;;;6.70;2.80;;;;;;;22.67;65.88;101613.73;213747;1288;138210;-83
2023/09/25 15:10:30;;;;;;;8.10;4.00;;;;;;;22.58;66.09;101617.83;214591;1288;140059;-85
2023/09/25 15:15:32;;;;;;;6.80;3.50;;;;;;;22.44;66.57;101617.46;214343;1290;99243;-84
2023/09/25 15:20:33;;;;;;;7.70;3.60;;;;;;;22.36;66.95;101615.58;214802;1286;139530;-82
2023/09/25 15:25:33;;;;;;;8.90;4.70;;;;;;;22.29;67.39;101613.14;215214;1285;138998;-84
2023/09/25 15:30:36;;;;;;;9.50;3.80;;;;;;;22.19;67.57;101609.08;214653;1288;139524;-84
2023/09/25 15:35:36;;;;;;;9.70;3.90;;;;;;;22.09;68.21;101601.25;215219;1288;139226;-85
2023/09/25 15:40:37;;;;;;;8.90;4.10;;;;;;;22.01;68.42;101595.39;215300;1285;139847;-84
2023/09/25 15:45:38;;;;;;;6.50;3.10;;;;;;;21.93;69.07;101599.04;214432;1286;106313;-84
2023/09/25 15:50:40;;;;;;;8.40;3.00;;;;;;;21.90;69.62;101593.56;212736;1288;141389;-85
2023/09/25 15:55:41;;;;;;;12.20;3.50;;;;;;;21.84;70.12;101589.98;214659;1287;138052;-84
2023/09/25 16:00:42;;;;;;;9.50;3.20;;;;;;;21.76;69.92;101590.92;215562;1286;140496;-86
2023/09/25 16:05:43;;;;;;;8.10;3.50;;;;;;;21.64;70.50;101593.08;218450;1285;138562;-85
2023/09/25 16:10:43;;;;;;;8.60;4.00;;;;;;;21.59;70.86;101597.01;216327;1285;140127;-85
2023/09/25 16:15:43;;;;;;;9.30;3.60;;;;;;;21.48;71.13;101591.89;215355;1290;99250;-84
2023/09/25 16:20:44;;;;;;;7.70;3.60;;;;;;;21.41;71.90;101586.71;214229;1287;140962;-86
2023/09/25 16:25:45;;;;;;;8.00;3.20;;;;;;;21.34;72.62;101587.23;214697;1287;138076;-86
2023/09/25 16:30:46;;;;;;;11.20;3.50;;;;;;;21.27;73.68;101588.91;214494;1286;140693;-85
2023/09/25 16:35:46;;;;;;;8.80;3.60;;;;;;;21.18;74.34;101587.28;215324;1286;138193;-86
2023/09/25 16:40:48;;;;;;;7.40;3.20;;;;;;;21.07;75.58;101583.60;214344;1288;139485;-85
2023/09/25 16:45:52;;;;;;;6.90;3.20;;;;;;;20.96;76.18;101588.47;214575;1290;108056;-86
2023/09/25 16:50:53;;;;;;;10.10;3.50;;;;;;;20.86;76.51;101588.48;214737;1286;139784;-86
2023/09/25 16:55:53;;;;;;;8.40;3.70;;;;;;;20.77;77.13;101582.44;215606;1288;137975;-87
2023/09/25 17:00:54;;;;;;;8.20;3.40;;;;;;;20.71;77.57;101577.95;214487;1287;141429;-84
2023/09/25 17:05:54;;;;;;;9.00;3.40;;;;;;;20.63;78.12;101574.13;214376;1286;139306;-84
2023/09/25 17:10:55;;;;;;;7.80;3.20;;;;;;;20.56;78.46;101570.55;214046;1288;140015;-83
2023/09/25 17:15:56;;;;;;;11.90;3.50;;;;;;;20.44;78.27;101565.89;215100;1286;139424;-84
2023/09/25 17:20:56;;;;;;;11.50;4.50;;;;;;;20.37;78.43;101567.09;214743;1288;141786;-85
2023/09/25 17:25:57;;;;;;;9.00;4.80;;;;;;;20.28;78.72;101562.78;215024;1288;138799;-85
2023/09/25 17:31:05;;;;;;;11.10;4.20;;;;;;;20.19;79.15;101570.70;214345;1288;141462;-84
2023/09/25 17:36:08;;;;;;;11.00;4.30;;;;;;;20.14;79.68;101570.19;215923;1288;139334;-86
2023/09/25 17:41:10;;;;;;;10.60;4.30;;;;;;;20.04;80.20;101570.99;215166;1288;141199;-87
2023/09/25 17:46:10;;;;;;;9.60;5.30;;;;;;;19.95;80.50;101566.91;215296;1289;139581;-84
2023/09/25 17:51:11;;;;;;;21.40;4.90;;;;;;;19.90;80.55;101562.50;215192;1286;142070;-87
2023/09/25 17:56:13;;;;;;;15.60;4.40;;;;;;;19.89;80.96;101567.29;215419;1285;138672;-84
2023/09/25 18:01:14;;;;;;;9.70;4.10;;;;;;;19.85;80.96;101566.84;214618;1285;141604;-85
2023/09/25 18:06:14;;;;;;;13.80;5.20;;;;;;;19.82;81.06;101568.55;215127;1288;139215;-86
2023/09/25 18:11:15;;;;;;;19.10;5.90;;;;;;;19.79;81.32;101567.85;214464;1288;141553;-85
2023/09/25 18:16:15;;;;;;;9.90;4.70;;;;;;;19.76;81.46;101569.23;215339;1288;138837;-85
2023/09/25 18:21:15;;;;;;;10.60;5.00;;;;;;;19.70;81.70;101562.81;214855;1286;141384;-86
2023/09/25 18:26:16;;;;;;;13.50;5.30;;;;;;;19.67;81.79;101559.41;214807;1290;139497;-86
2023/09/25 18:31:16;;;;;;;10.90;4.20;;;;;;;19.63;81.92;101553.70;214319;1288;140946;-87
2023/09/25 18:36:17;;;;;;;13.10;4.80;;;;;;;19.59;82.22;101553.57;215099;1289;139667;-85
2023/09/25 18:41:17;;;;;;;10.80;5.30;;;;;;;19.55;82.56;101552.80;215034;1288;141795;-86
2023/09/25 18:46:19;;;;;;;9.30;4.60;;;;;;;19.50;82.76;101554.13;215210;1286;139036;-85
2023/09/25 18:51:22;;;;;;;11.30;4.30;;;;;;;19.47;82.93;101549.83;215122;1287;141625;-86
2023/09/25 18:56:22;;;;;;;12.90;4.80;;;;;;;19.45;83.05;101552.48;215367;1285;139267;-86
2023/09/25 19:01:23;;;;;;;10.80;4.40;;;;;;;19.42;83.17;101557.21;214721;1288;141699;-86
2023/09/25 19:06:23;;;;;;;9.20;4.70;;;;;;;19.38;83.28;101558.98;215416;1286;139335;-85
2023/09/25 19:11:24;;;;;;;8.60;4.10;;;;;;;19.36;83.48;101566.11;214742;1286;140719;-86
2023/09/25 19:16:24;;;;;;;10.30;4.70;;;;;;;19.32;83.63;101571.56;215351;1285;139887;-85
2023/09/25 19:21:27;;;;;;;8.80;3.90;;;;;;;19.30;83.74;101569.81;214651;1288;141410;-85
2023/09/25 19:26:28;;;;;;;8.30;4.60;;;;;;;19.28;83.80;101566.40;215269;1286;139082;-85
2023/09/25 19:31:28;;;;;;;10.50;4.70;;;;;;;19.28;84.00;101564.17;214571;1285;141012;-85
2023/09/25 19:36:29;;;;;;;7.70;4.50;;;;;;;19.27;83.94;101563.13;215022;1286;140014;-86
2023/09/25 19:41:29;;;;;;;11.70;4.10;;;;;;;19.25;84.06;101560.35;214516;1286;140783;-85
2023/09/25 19:46:34;;;;;;;8.90;5.00;;;;;;;19.23;84.34;101556.54;215531;1288;139965;-86
2023/09/25 19:51:37;;;;;;;11.70;4.90;;;;;;;19.20;84.45;101553.74;215067;1289;140999;-85
2023/09/25 19:56:38;;;;;;;10.20;4.70;;;;;;;19.17;84.41;101555.12;215490;1286;139141;-86
2023/09/25 20:01:40;;;;;;;10.30;4.80;;;;;;;19.12;84.53;101558.89;214717;1285;142707;-86
2023/09/25 20:06:40;;;;;;;9.60;5.00;;;;;;;19.09;84.72;101558.44;215082;1285;139341;-86
2023/09/25 20:11:41;;;;;;;11.60;5.50;;;;;;;19.01;85.14;101556.56;214691;1285;145402;-86
2023/09/25 20:16:41;;;;;;;11.10;5.40;;;;;;;18.93;85.27;101556.52;215269;1288;139431;-85
2023/09/25 20:21:41;;;;;;;12.00;5.50;;;;;;;18.84;85.69;101560.73;215017;1289;140970;-84
2023/09/25 20:26:42;;;;;;;11.90;5.30;;;;;;;18.78;86.09;101558.73;215245;1288;138912;-85
2023/09/25 20:31:42;;;;;;;8.60;5.10;;;;;;;18.72;86.37;101557.26;214788;1289;141457;-85
2023/09/25 20:36:43;;;;;;;9.80;5.40;;;;;;;18.65;86.48;101553.15;215202;1288;138647;-85
2023/09/25 20:41:43;;;;;;;9.50;5.10;;;;;;;18.60;86.90;101560.10;212965;1286;141881;-85
2023/09/25 20:46:48;;;;;;;10.80;5.80;;;;;;;18.53;87.48;101565.70;215562;1288;138804;-85
2023/09/25 20:51:49;;;;;;;12.60;6.20;;;;;;;18.49;87.69;101568.50;215912;1286;140860;-85
2023/09/25 20:56:50;;;;;;;12.00;5.30;;;;;;;18.46;87.77;101569.95;215786;1291;138676;-85
2023/09/25 21:01:50;;;;;;;10.90;5.90;;;;;;;18.43;88.35;101570.19;215435;1286;141166;-87
2023/09/25 21:06:51;;;;;;;10.50;5.80;;;;;;;18.40;88.42;101577.36;216228;1288;139550;-87
2023/09/25 21:11:52;;;;;;;12.70;6.50;;;;;;;18.40;88.90;101573.86;215182;1285;141074;-87
2023/09/25 21:16:52;;;;;;;14.30;7.50;;;;;;;18.38;89.36;101573.95;215411;1286;139574;-87
2023/09/25 21:21:53;;;;;;;10.90;6.80;;;;;;;18.39;89.74;101579.84;214688;1290;140456;-84
2023/09/25 21:26:53;;;;;;;13.70;6.40;;;;;;;18.39;89.86;101578.33;214942;1286;139395;-86
2023/09/25 21:31:53;;;;;;;12.80;6.40;;;;;;;18.39;90.16;101579.11;214617;1285;141520;-86
2023/09/25 21:36:54;;;;;;;11.30;7.20;;;;;;;18.41;90.16;101578.40;216292;1288;139301;-86
2023/09/25 21:41:54;;;;;;;17.70;7.10;;;;;;;18.43;90.88;101579.27;215729;1288;141593;-85
2023/09/25 21:46:55;;;;;;;15.80;7.50;;;;;;;18.44;91.15;101578.23;216136;1286;139320;-86
2023/09/25 21:51:55;;;;;;;14.70;7.60;;;;;;;18.46;91.38;101579.66;214967;1286;143934;-86
2023/09/25 21:56:56;;;;;;;13.00;6.80;;;;;;;18.47;91.57;101575.67;215214;1287;139833;-87
2023/09/25 22:01:56;;;;;;;15.90;7.00;;;;;;;18.48;91.58;101575.59;214106;1288;140812;-86
2023/09/25 22:06:57;;;;;;;11.10;6.30;;;;;;;18.47;91.81;101573.04;214927;1289;138890;-87
2023/09/25 22:11:57;;;;;;;11.70;6.50;;;;;;;18.49;91.61;101570.73;215037;1285;141857;-86
2023/09/25 22:16:58;;;;;;;12.10;6.70;;;;;;;18.48;92.04;101571.29;215814;1289;139419;-86
2023/09/25 22:21:58;;;;;;;11.10;6.40;;;;;;;18.47;92.42;101564.76;215175;1288;143177;-86
2023/09/25 22:26:59;;;;;;;15.00;6.80;;;;;;;18.47;92.52;101563.33;215794;1286;109512;-86
2023/09/25 22:32:00;;;;;;;12.90;6.90;;;;;;;18.45;92.76;101559.98;214862;1286;141736;-87